Time;durP1;ratioP1;P1;durP2;ratioP2;P2;SDS_P1;SDS_P2;PMS_P1;PMS_P2;Temp;Humidity;BMP_temperature;BMP_pressure;BME280_temperature;BME280_humidity;BME280_pressure;Samples;Min_cycle;Max_cycle;Signal;HPM_P1;HPM_P2
2023/05/21 00:00:28;;;;;;;3.90;2.50;;;;;;;14.78;45.58;101206.89;108009;1254;61273;-82
2023/05/21 00:02:57;;;;;;;3.90;2.30;;;;;;;14.74;45.77;101200.92;107926;1254;61343;-82
2023/05/21 00:05:26;;;;;;;5.90;2.50;;;;;;;14.70;45.90;101201.35;107955;1254;75173;-81
2023/05/21 00:07:53;;;;;;;6.20;2.60;;;;;;;14.66;45.94;101204.80;107972;1254;73334;-81
2023/05/21 00:10:20;;;;;;;6.60;2.70;;;;;;;14.62;45.96;101204.14;108042;1258;74785;-82
2023/05/21 00:12:48;;;;;;;6.50;2.50;;;;;;;14.59;46.05;101203.06;107962;1260;61043;-81
2023/05/21 00:15:15;;;;;;;4.90;2.40;;;;;;;14.55;46.31;101204.99;107969;1259;61126;-81
2023/05/21 00:17:43;;;;;;;5.20;2.50;;;;;;;14.50;46.46;101199.77;108045;1259;76990;-82
2023/05/21 00:20:11;;;;;;;5.20;2.50;;;;;;;14.46;46.54;101201.51;108088;1254;72904;-81
2023/05/21 00:22:40;;;;;;;6.30;2.40;;;;;;;14.40;46.75;101204.15;108093;1256;71375;-81
2023/05/21 00:25:09;;;;;;;4.70;2.10;;;;;;;14.36;46.87;101206.86;108080;1257;61247;-81
2023/05/21 00:27:36;;;;;;;7.30;2.40;;;;;;;14.33;46.91;101208.70;108080;1254;61211;-81
2023/05/21 00:30:03;;;;;;;7.00;3.00;;;;;;;14.30;46.99;101212.02;107969;1254;75101;-81
2023/05/21 00:32:30;;;;;;;5.10;2.50;;;;;;;14.26;47.27;101209.70;108033;1254;74344;-81
2023/05/21 00:34:58;;;;;;;5.90;2.70;;;;;;;14.22;47.39;101207.23;107913;1260;74954;-81
2023/05/21 00:37:25;;;;;;;4.30;2.20;;;;;;;14.20;47.49;101204.42;107985;1257;61228;-81
2023/05/21 00:39:52;;;;;;;4.90;2.50;;;;;;;14.18;47.52;101207.16;108142;1254;63010;-81
2023/05/21 00:42:19;;;;;;;5.20;2.60;;;;;;;14.15;47.72;101208.60;108054;1254;74988;-82
2023/05/21 00:44:46;;;;;;;5.90;2.30;;;;;;;14.11;47.85;101209.06;107955;1254;74819;-80
2023/05/21 00:47:17;;;;;;;5.50;2.20;;;;;;;14.07;48.00;101214.00;107983;1255;73343;-80
2023/05/21 00:49:44;;;;;;;4.40;2.00;;;;;;;14.04;47.86;101215.60;107984;1258;61342;-81
2023/05/21 00:52:11;;;;;;;6.40;2.40;;;;;;;14.01;47.96;101210.50;107972;1254;60510;-81
2023/05/21 00:54:39;;;;;;;6.10;3.00;;;;;;;13.99;48.07;101209.90;108046;1254;74571;-81
2023/05/21 00:57:06;;;;;;;5.00;2.10;;;;;;;13.96;48.10;101207.47;108016;1254;74799;-81
2023/05/21 00:59:33;;;;;;;3.90;2.20;;;;;;;13.92;48.22;101204.06;108028;1253;72037;-81
2023/05/21 01:02:03;;;;;;;4.70;2.50;;;;;;;13.87;48.27;101204.33;107920;1254;62550;-81
2023/05/21 01:04:30;;;;;;;6.80;2.00;;;;;;;13.82;48.39;101197.81;108054;1253;61173;-82
2023/05/21 01:06:58;;;;;;;6.60;2.30;;;;;;;13.80;48.47;101197.80;107977;1254;74487;-81
2023/05/21 01:09:25;;;;;;;4.60;2.20;;;;;;;13.78;48.63;101194.98;108151;1254;73044;-81
2023/05/21 01:11:52;;;;;;;6.50;2.70;;;;;;;13.78;48.62;101193.44;108142;1254;72787;-82
2023/05/21 01:14:19;;;;;;;5.10;2.10;;;;;;;13.78;48.70;101194.50;107962;1254;61205;-81
2023/05/21 01:16:48;;;;;;;8.40;2.70;;;;;;;13.76;48.86;101194.17;108202;1252;61383;-83
2023/05/21 01:19:17;;;;;;;5.20;2.30;;;;;;;13.74;48.76;101191.48;108169;1254;74075;-82
2023/05/21 01:21:48;;;;;;;6.00;2.40;;;;;;;13.72;48.76;101188.04;108079;1254;74393;-83
2023/05/21 01:24:15;;;;;;;7.40;2.40;;;;;;;13.68;48.95;101188.25;108122;1257;74701;-82
2023/05/21 01:26:43;;;;;;;6.50;2.30;;;;;;;13.64;48.97;101193.38;108175;1254;59327;-81
2023/05/21 01:29:13;;;;;;;6.20;2.60;;;;;;;13.61;48.97;101188.27;108285;1254;62333;-81
2023/05/21 01:31:55;;;;;;;5.80;2.40;;;;;;;13.58;49.18;101194.00;108175;1254;74280;-83
2023/05/21 01:34:29;;;;;;;5.30;2.50;;;;;;;13.55;49.21;101188.08;108179;1254;73528;-83
2023/05/21 01:37:03;;;;;;;7.30;2.70;;;;;;;13.52;49.15;101182.42;108099;1260;71694;-82
2023/05/21 01:39:36;;;;;;;4.10;2.50;;;;;;;13.49;49.08;101176.40;108223;1259;61132;-84
2023/05/21 01:42:08;;;;;;;4.30;2.50;;;;;;;13.46;49.09;101175.56;108180;1254;61103;-82
2023/05/21 01:44:35;;;;;;;5.70;2.50;;;;;;;13.43;49.09;101175.88;108185;1254;74788;-84
2023/05/21 01:47:02;;;;;;;4.40;2.40;;;;;;;13.41;49.06;101175.17;108181;1253;72011;-81
2023/05/21 01:49:29;;;;;;;6.40;2.70;;;;;;;13.38;49.30;101178.44;108258;1254;73432;-82
2023/05/21 01:51:56;;;;;;;6.90;2.80;;;;;;;13.34;49.37;101182.12;108173;1253;61144;-82
2023/05/21 01:54:23;;;;;;;10.90;3.30;;;;;;;13.31;49.54;101179.80;108144;1254;61129;-82
2023/05/21 01:56:51;;;;;;;5.00;2.70;;;;;;;13.28;49.81;101181.50;108189;1254;76343;-82
2023/05/21 01:59:19;;;;;;;4.00;2.40;;;;;;;13.25;49.98;101182.64;108138;1253;72500;-81
2023/05/21 02:01:46;;;;;;;10.20;3.00;;;;;;;13.23;50.20;101183.31;108267;1254;74247;-81
2023/05/21 02:04:14;;;;;;;4.80;2.60;;;;;;;13.20;50.32;101184.05;108023;1254;63838;-82
2023/05/21 02:06:41;;;;;;;6.10;2.80;;;;;;;13.18;50.58;101182.58;107979;1254;61141;-81
2023/05/21 02:09:08;;;;;;;4.00;2.50;;;;;;;13.17;50.79;101179.95;108231;1254;76652;-83
2023/05/21 02:11:35;;;;;;;5.20;2.60;;;;;;;13.15;50.95;101180.85;108245;1259;74906;-82
2023/05/21 02:14:02;;;;;;;5.10;2.80;;;;;;;13.09;50.85;101178.29;108140;1254;75023;-83
2023/05/21 02:16:33;;;;;;;4.00;2.50;;;;;;;13.03;50.95;101182.64;108178;1254;61010;-83
2023/05/21 02:19:03;;;;;;;5.80;2.50;;;;;;;12.99;51.11;101176.88;108065;1254;62441;-83
2023/05/21 02:21:30;;;;;;;6.00;2.80;;;;;;;12.96;51.31;101176.21;108070;1254;73760;-82
2023/05/21 02:23:57;;;;;;;5.80;2.60;;;;;;;12.92;51.64;101175.05;108211;1252;72936;-82
2023/05/21 02:26:24;;;;;;;5.80;2.30;;;;;;;12.89;51.76;101170.54;108290;1254;71376;-82
2023/05/21 02:28:53;;;;;;;5.20;2.50;;;;;;;12.86;51.95;101170.23;108094;1254;62925;-82
2023/05/21 02:31:20;;;;;;;5.60;2.80;;;;;;;12.84;52.10;101170.50;108217;1254;61979;-83
2023/05/21 02:33:47;;;;;;;3.90;2.60;;;;;;;12.82;52.25;101174.60;108072;1254;75571;-82
2023/05/21 02:36:17;;;;;;;5.30;2.70;;;;;;;12.80;52.41;101179.90;108104;1254;73346;-83
2023/05/21 02:38:46;;;;;;;5.50;2.70;;;;;;;12.79;52.43;101185.25;108152;1254;73150;-83
2023/05/21 02:41:13;;;;;;;5.90;3.00;;;;;;;12.77;52.63;101182.73;108017;1254;64287;-82
2023/05/21 02:43:41;;;;;;;6.30;2.90;;;;;;;12.76;52.67;101184.15;107917;1253;216361;-83
2023/05/21 02:46:08;;;;;;;4.10;2.30;;;;;;;12.74;52.79;101181.63;108037;1257;74621;-82
2023/05/21 02:48:36;;;;;;;4.10;2.50;;;;;;;12.73;52.84;101180.65;108127;1253;72493;-82
2023/05/21 02:51:03;;;;;;;7.20;2.90;;;;;;;12.73;53.00;101177.91;108132;1254;74117;-82
2023/05/21 02:53:30;;;;;;;5.30;2.70;;;;;;;12.74;53.09;101178.04;108131;1254;61728;-82
2023/05/21 02:55:57;;;;;;;5.90;2.70;;;;;;;12.76;53.18;101178.25;108224;1253;61382;-82
2023/05/21 02:58:25;;;;;;;6.50;3.20;;;;;;;12.77;53.29;101180.74;107985;1254;73051;-83
2023/05/21 03:00:52;;;;;;;4.60;2.70;;;;;;;12.78;53.32;101180.91;108169;1254;71796;-83
2023/05/21 03:03:19;;;;;;;4.80;2.60;;;;;;;12.80;53.45;101178.83;108056;1254;75250;-83
2023/05/21 03:05:47;;;;;;;6.10;2.90;;;;;;;12.81;53.35;101175.79;108170;1254;62848;-83
2023/05/21 03:08:15;;;;;;;6.20;2.80;;;;;;;12.82;53.33;101182.80;108093;1253;61101;-83
2023/05/21 03:10:43;;;;;;;5.70;2.70;;;;;;;12.84;53.26;101179.02;107967;1254;73444;-83
2023/05/21 03:13:10;;;;;;;5.50;2.80;;;;;;;12.87;53.32;101176.52;108058;1252;73189;-84
2023/05/21 03:15:37;;;;;;;6.40;2.90;;;;;;;12.92;53.38;101176.14;108013;1254;72349;-83
2023/05/21 03:18:05;;;;;;;6.80;2.80;;;;;;;12.97;53.27;101176.75;108024;1253;61227;-83
2023/05/21 03:20:32;;;;;;;4.80;2.80;;;;;;;13.01;53.30;101183.48;108054;1253;60920;-83
2023/05/21 03:23:03;;;;;;;5.10;2.70;;;;;;;13.05;53.15;101188.61;108112;1254;76640;-83
2023/05/21 03:25:30;;;;;;;6.30;3.20;;;;;;;13.09;53.11;101192.61;108077;1253;73952;-82
2023/05/21 03:27:57;;;;;;;5.80;3.00;;;;;;;13.14;52.95;101191.78;108061;1256;71238;-83
2023/05/21 03:30:45;;;;;;;7.60;3.10;;;;;;;13.19;53.07;101198.20;108107;1252;62964;-82
2023/05/21 03:33:32;;;;;;;6.10;3.20;;;;;;;13.24;53.06;101205.98;108177;1253;61260;-81
2023/05/21 03:36:01;;;;;;;5.20;3.10;;;;;;;13.30;52.98;101203.87;107966;1253;75221;-82
2023/05/21 03:38:30;;;;;;;7.80;3.20;;;;;;;13.34;52.91;101206.16;108120;1253;72590;-84
2023/05/21 03:40:57;;;;;;;5.50;3.00;;;;;;;13.39;52.59;101203.55;108173;1254;72847;-81
2023/05/21 03:43:24;;;;;;;6.80;3.30;;;;;;;13.44;52.50;101201.59;108093;1253;61237;-82
2023/05/21 03:45:53;;;;;;;6.90;3.20;;;;;;;13.48;52.32;101200.87;108018;1254;61119;-83
2023/05/21 03:48:57;;;;;;;5.90;3.30;;;;;;;13.55;52.10;101193.08;107627;1260;74734;-82
2023/05/21 03:51:24;;;;;;;10.20;3.50;;;;;;;13.59;51.85;101189.55;108022;1254;73600;-83
2023/05/21 03:53:51;;;;;;;4.90;3.10;;;;;;;13.61;51.60;101196.52;107955;1254;72779;-83
2023/05/21 03:56:19;;;;;;;8.60;3.60;;;;;;;13.66;51.63;101193.39;107968;1253;61079;-83
2023/05/21 03:58:46;;;;;;;8.10;3.20;;;;;;;13.74;51.42;101194.17;108128;1254;61218;-83
2023/05/21 04:01:13;;;;;;;6.40;3.30;;;;;;;13.80;51.10;101195.05;108058;1254;75670;-82
2023/05/21 04:03:41;;;;;;;8.10;3.30;;;;;;;13.86;51.01;101198.36;108056;1258;73458;-82
2023/05/21 04:06:09;;;;;;;7.50;3.70;;;;;;;13.91;50.65;101196.77;107934;1254;73319;-82
2023/05/21 04:08:37;;;;;;;7.40;3.80;;;;;;;13.97;50.30;101199.20;107943;1253;61192;-82
2023/05/21 04:11:04;;;;;;;6.20;3.80;;;;;;;14.04;50.30;101201.05;108054;1254;61291;-83
2023/05/21 04:13:31;;;;;;;6.80;3.60;;;;;;;14.13;50.18;101199.73;108070;1254;75150;-82
2023/05/21 04:15:58;;;;;;;6.80;3.70;;;;;;;14.22;49.82;101200.77;108024;1253;75229;-83
2023/05/21 04:18:26;;;;;;;7.60;3.90;;;;;;;14.30;49.59;101202.85;107986;1257;72633;-83
2023/05/21 04:20:53;;;;;;;6.90;4.30;;;;;;;14.39;49.19;101204.52;108000;1253;61266;-82
2023/05/21 04:23:22;;;;;;;9.40;4.40;;;;;;;14.45;48.72;101199.52;108015;1254;61164;-82
2023/05/21 04:25:49;;;;;;;7.00;4.00;;;;;;;14.52;48.20;101198.33;108009;1254;76442;-83
2023/05/21 04:28:20;;;;;;;8.20;4.60;;;;;;;14.56;47.94;101199.52;107996;1254;71134;-83
2023/05/21 04:30:48;;;;;;;6.70;4.00;;;;;;;14.62;47.66;101198.98;108100;1254;74673;-82
2023/05/21 04:33:18;;;;;;;7.90;4.80;;;;;;;14.68;47.30;101195.27;108110;1254;61282;-82
2023/05/21 04:35:48;;;;;;;6.00;4.20;;;;;;;14.75;47.39;101186.52;108125;1254;61334;-82
2023/05/21 04:38:19;;;;;;;7.80;4.40;;;;;;;14.86;47.20;101186.29;108151;1253;76126;-83
2023/05/21 04:40:50;;;;;;;6.30;4.00;;;;;;;14.90;46.95;101182.67;108136;1254;73129;-82
2023/05/21 04:43:24;;;;;;;7.30;4.20;;;;;;;14.97;46.79;101186.77;108153;1253;72451;-82
2023/05/21 04:45:53;;;;;;;6.10;4.50;;;;;;;15.02;46.49;101186.33;108089;1253;61852;-82
2023/05/21 04:48:23;;;;;;;6.90;4.60;;;;;;;15.08;46.34;101185.52;108182;1259;62734;-82
2023/05/21 04:50:52;;;;;;;7.10;4.20;;;;;;;15.10;46.47;101191.05;108110;1254;72559;-81
2023/05/21 04:53:19;;;;;;;9.70;4.70;;;;;;;15.16;46.22;101190.61;108139;1254;74810;-82
2023/05/21 04:55:47;;;;;;;8.10;4.20;;;;;;;15.23;46.02;101188.02;108176;1254;74725;-83
2023/05/21 04:58:16;;;;;;;6.70;4.20;;;;;;;15.29;45.97;101181.22;108104;1254;62683;-81
2023/05/21 05:00:49;;;;;;;8.40;4.50;;;;;;;15.35;45.83;101178.62;108163;1254;61052;-81
2023/05/21 05:03:16;;;;;;;7.00;4.00;;;;;;;15.38;45.81;101182.97;108202;1253;74589;-81
2023/05/21 05:05:44;;;;;;;7.40;4.20;;;;;;;15.45;45.75;101180.91;108203;1254;73892;-82
2023/05/21 05:08:11;;;;;;;8.60;4.60;;;;;;;15.54;45.70;101180.77;108141;1254;71589;-82
2023/05/21 05:10:41;;;;;;;8.10;3.60;;;;;;;15.59;45.58;101182.41;108176;1254;61150;-81
2023/05/21 05:13:08;;;;;;;8.10;4.40;;;;;;;15.65;45.57;101184.94;108138;1254;61095;-83
2023/05/21 05:15:36;;;;;;;7.30;4.20;;;;;;;15.72;45.37;101181.70;108133;1254;74429;-82
2023/05/21 05:18:07;;;;;;;7.20;4.20;;;;;;;15.80;45.22;101185.39;108097;1254;73048;-83
2023/05/21 05:20:35;;;;;;;6.80;4.20;;;;;;;15.88;45.07;101184.65;108071;1256;73581;-81
2023/05/21 05:23:02;;;;;;;7.00;4.20;;;;;;;15.96;45.18;101185.67;107973;1253;61473;-83
2023/05/21 05:25:29;;;;;;;6.20;4.10;;;;;;;16.05;44.75;101184.06;108046;1254;61159;-82
2023/05/21 05:27:56;;;;;;;5.60;4.00;;;;;;;16.14;44.78;101185.48;108221;1252;76461;-81
2023/05/21 05:30:24;;;;;;;7.20;3.90;;;;;;;16.25;44.60;101185.41;108214;1254;72569;-82
2023/05/21 05:32:52;;;;;;;7.30;4.30;;;;;;;16.34;44.33;101183.74;108155;1254;74959;-82
2023/05/21 05:35:19;;;;;;;7.00;3.90;;;;;;;16.39;43.87;101179.81;108166;1254;61234;-81
2023/05/21 05:37:47;;;;;;;6.90;4.20;;;;;;;16.42;43.83;101180.60;107977;1254;60548;-81
2023/05/21 05:40:14;;;;;;;8.50;4.50;;;;;;;16.48;44.13;101177.87;108043;1254;75523;-82
2023/05/21 05:42:41;;;;;;;6.90;4.00;;;;;;;16.60;43.95;101180.79;108190;1254;71774;-82
2023/05/21 05:45:10;;;;;;;9.70;4.30;;;;;;;16.73;43.92;101179.62;108001;1257;74984;-83
2023/05/21 05:47:38;;;;;;;8.10;4.00;;;;;;;16.86;43.54;101177.20;108172;1254;61270;-81
2023/05/21 05:50:06;;;;;;;5.10;3.70;;;;;;;16.99;43.38;101177.67;108197;1254;62261;-83
2023/05/21 05:52:35;;;;;;;6.30;3.80;;;;;;;17.11;42.76;101174.21;108203;1253;75575;-81
2023/05/21 05:55:02;;;;;;;6.10;3.60;;;;;;;17.20;42.40;101171.52;108171;1254;74800;-83
2023/05/21 05:57:29;;;;;;;6.80;3.70;;;;;;;17.28;42.42;101170.91;108166;1253;74705;-82
2023/05/21 06:00:00;;;;;;;5.60;3.40;;;;;;;17.40;42.23;101174.06;108270;1254;62098;-81
2023/05/21 06:02:38;;;;;;;5.90;3.20;;;;;;;17.49;41.89;101169.96;108208;1253;61665;-81
2023/05/21 06:05:06;;;;;;;6.10;3.60;;;;;;;17.53;41.62;101166.30;108207;1254;75862;-86
2023/05/21 06:07:33;;;;;;;4.90;3.20;;;;;;;17.58;41.80;101169.31;108076;1254;73785;-82
2023/05/21 06:10:00;;;;;;;6.10;3.60;;;;;;;17.70;41.70;101166.20;108138;1254;74563;-83
2023/05/21 06:12:27;;;;;;;7.00;3.50;;;;;;;17.82;41.31;101163.70;108008;1253;61212;-81
2023/05/21 06:14:54;;;;;;;6.30;3.50;;;;;;;17.91;41.23;101165.67;108019;1254;62806;-81
2023/05/21 06:17:22;;;;;;;5.00;3.20;;;;;;;18.01;40.78;101167.33;108108;1254;75838;-82
2023/05/21 06:19:49;;;;;;;6.20;3.80;;;;;;;18.07;40.56;101166.21;108113;1254;73988;-81
2023/05/21 06:22:17;;;;;;;5.70;3.60;;;;;;;18.13;40.48;101165.58;107984;1254;74411;-81
2023/05/21 06:24:44;;;;;;;5.70;3.60;;;;;;;18.22;40.54;101163.47;108052;1254;61227;-82
2023/05/21 06:27:12;;;;;;;4.50;3.40;;;;;;;18.32;40.60;101158.55;108075;1254;61093;-81
2023/05/21 06:29:39;;;;;;;5.80;3.70;;;;;;;18.45;40.13;101152.12;108085;1254;74536;-80
2023/05/21 06:32:10;;;;;;;5.20;3.40;;;;;;;18.49;39.58;101144.91;108095;1253;75104;-82
2023/05/21 06:34:38;;;;;;;5.80;3.20;;;;;;;18.55;39.30;101140.11;108005;1254;72705;-82
2023/05/21 06:37:05;;;;;;;5.30;3.40;;;;;;;18.64;39.46;101140.88;108119;1254;61204;-81
2023/05/21 06:39:32;;;;;;;6.30;3.50;;;;;;;18.79;39.07;101137.45;108186;1259;61234;-82
2023/05/21 06:41:59;;;;;;;5.00;3.40;;;;;;;18.96;39.03;101141.21;108164;1254;75358;-82
2023/05/21 06:44:59;;;;;;;6.30;3.70;;;;;;;19.10;38.70;101143.55;107751;1253;71980;-82
2023/05/21 06:47:35;;;;;;;7.10;3.00;;;;;;;19.20;39.04;101137.67;108217;1253;72965;-82
2023/05/21 06:50:03;;;;;;;6.10;3.00;;;;;;;19.36;37.94;101133.77;108150;1254;61246;-82
2023/05/21 06:52:31;;;;;;;6.30;3.20;;;;;;;19.44;37.49;101130.35;108115;1254;61967;-81
2023/05/21 06:54:59;;;;;;;4.80;2.90;;;;;;;19.38;37.20;101128.37;108116;1252;75547;-81
2023/05/21 06:57:28;;;;;;;6.60;3.10;;;;;;;19.33;36.44;101125.38;108152;1253;74599;-81
2023/05/21 06:59:56;;;;;;;4.30;2.90;;;;;;;19.29;36.94;101125.20;108166;1254;71944;-81
2023/05/21 07:02:23;;;;;;;4.20;2.60;;;;;;;19.29;36.79;101121.59;108037;1252;61122;-82
2023/05/21 07:04:52;;;;;;;5.50;2.90;;;;;;;19.34;36.37;101112.27;108109;1254;61148;-82
2023/05/21 07:07:19;;;;;;;4.20;2.50;;;;;;;19.37;36.32;101112.73;108049;1258;75745;-82
2023/05/21 07:09:46;;;;;;;5.30;3.00;;;;;;;19.44;35.86;101111.83;108142;1256;74556;-80
2023/05/21 07:12:13;;;;;;;4.20;2.70;;;;;;;19.51;35.73;101113.70;108164;1254;73502;-81
2023/05/21 07:14:40;;;;;;;4.70;2.80;;;;;;;19.62;36.02;101108.38;108060;1254;62778;-83
2023/05/21 07:17:08;;;;;;;5.00;2.80;;;;;;;19.71;36.11;101106.31;108068;1254;61140;-80
2023/05/21 07:19:36;;;;;;;5.00;2.70;;;;;;;19.84;36.22;101108.41;108027;1254;76616;-81
2023/05/21 07:22:06;;;;;;;5.50;2.50;;;;;;;19.98;35.49;101105.86;108077;1253;72833;-81
2023/05/21 07:24:33;;;;;;;4.30;2.60;;;;;;;20.07;35.21;101104.61;108137;1256;71769;-81
2023/05/21 07:27:00;;;;;;;5.20;2.70;;;;;;;20.08;34.98;101100.80;108151;1254;62341;-81
2023/05/21 07:29:34;;;;;;;3.50;2.10;;;;;;;20.07;35.19;101104.17;108183;1254;60659;-81
2023/05/21 07:32:01;;;;;;;5.50;2.80;;;;;;;20.10;34.92;101099.95;107948;1254;74007;-81
2023/05/21 07:34:28;;;;;;;5.20;3.00;;;;;;;20.02;35.02;101098.07;108216;1252;73246;-81
2023/05/21 07:36:55;;;;;;;6.00;2.40;;;;;;;20.01;34.94;101094.96;108100;1255;72745;-81
2023/05/21 07:39:23;;;;;;;6.20;2.60;;;;;;;20.01;34.48;101085.67;108250;1254;61852;-82
2023/05/21 07:41:50;;;;;;;4.50;2.50;;;;;;;19.95;34.50;101091.50;108161;1252;61205;-81
2023/05/21 07:44:17;;;;;;;4.90;2.90;;;;;;;19.97;34.56;101085.77;108093;1254;75298;-81
2023/05/21 07:46:45;;;;;;;4.50;2.70;;;;;;;20.05;34.58;101083.80;107959;1254;72340;-82
2023/05/21 07:49:15;;;;;;;6.40;2.50;;;;;;;20.12;34.58;101077.60;108043;1254;73804;-82
2023/05/21 07:51:44;;;;;;;;;;;;;;;20.23;34.46;101075.98;108140;1254;61205;-80
2023/05/21 07:54:11;;;;;;;5.30;2.80;;;;;;;20.32;34.25;101072.20;108056;1253;61191;-81
2023/05/21 07:56:39;;;;;;;4.80;2.30;;;;;;;20.42;34.87;101079.36;108111;1253;76779;-82
2023/05/21 07:59:07;;;;;;;4.70;3.00;;;;;;;20.53;34.28;101079.32;108045;1254;75248;-80
2023/05/21 08:01:36;;;;;;;4.30;2.60;;;;;;;20.57;33.88;101075.31;108203;1253;74381;-82
2023/05/21 08:04:05;;;;;;;6.20;3.00;;;;;;;20.60;34.08;101082.77;108160;1254;61464;-81
2023/05/21 08:06:33;;;;;;;4.10;2.40;;;;;;;20.71;33.61;101078.20;108121;1252;61099;-81
2023/05/21 08:09:00;;;;;;;5.10;2.80;;;;;;;20.83;34.14;101079.81;108215;1254;76382;-82
2023/05/21 08:11:28;;;;;;;4.60;2.50;;;;;;;21.01;33.71;101073.84;108227;1254;74199;-82
2023/05/21 08:13:55;;;;;;;8.90;2.90;;;;;;;21.19;33.27;101076.31;108130;1252;71075;-82
2023/05/21 08:16:24;;;;;;;4.10;2.60;;;;;;;21.31;32.75;101069.92;108182;1256;61154;-82
2023/05/21 08:18:52;;;;;;;5.10;2.70;;;;;;;21.30;32.14;101073.98;108153;1254;62401;-81
2023/05/21 08:21:19;;;;;;;5.10;2.30;;;;;;;21.24;32.57;101079.60;108086;1257;75666;-83
2023/05/21 08:23:46;;;;;;;4.10;2.50;;;;;;;21.26;32.55;101074.81;108250;1253;74807;-80
2023/05/21 08:26:15;;;;;;;4.00;2.20;;;;;;;21.32;31.77;101069.70;108143;1254;74111;-81
2023/05/21 08:28:42;;;;;;;5.10;2.40;;;;;;;21.27;32.01;101066.52;108022;1255;61333;-80
2023/05/21 08:31:11;;;;;;;3.60;2.30;;;;;;;21.28;31.49;101070.78;108102;1253;61712;-82
2023/05/21 08:33:38;;;;;;;4.70;2.10;;;;;;;21.36;31.76;101066.02;108221;1253;74957;-82
2023/05/21 08:36:05;;;;;;;5.70;2.40;;;;;;;21.44;31.37;101057.63;108150;1254;74637;-86
2023/05/21 08:38:38;;;;;;;5.10;2.20;;;;;;;21.48;31.28;101057.83;108229;1253;72391;-82
2023/05/21 08:41:21;;;;;;;5.50;2.80;;;;;;;21.54;31.51;101063.40;108243;1257;61982;-81
2023/05/21 08:43:54;;;;;;;6.90;2.30;;;;;;;21.58;31.58;101055.19;108149;1254;61146;-81
2023/05/21 08:46:22;;;;;;;4.50;2.30;;;;;;;21.65;32.23;101055.26;108169;1259;74748;-81
2023/05/21 08:48:53;;;;;;;6.10;2.40;;;;;;;21.79;31.26;101056.60;108315;1253;73453;-81
2023/05/21 08:51:23;;;;;;;4.00;2.20;;;;;;;21.87;30.88;101057.55;108209;1254;74016;-82
2023/05/21 08:53:51;;;;;;;4.20;2.50;;;;;;;21.94;30.17;101051.56;108352;1254;61432;-81
2023/05/21 08:56:18;;;;;;;3.80;2.10;;;;;;;21.95;30.33;101049.52;108387;1253;59486;-81
2023/05/21 08:58:52;;;;;;;5.50;2.30;;;;;;;21.96;30.95;101050.44;108205;1253;74644;-81
2023/05/21 09:01:21;;;;;;;3.80;2.70;;;;;;;21.96;30.70;101048.11;108140;1254;74839;-82
2023/05/21 09:04:06;;;;;;;4.40;2.20;;;;;;;22.00;30.79;101043.52;108194;1253;72634;-79
2023/05/21 09:06:47;;;;;;;4.30;2.60;;;;;;;22.07;30.70;101037.83;108375;1253;61916;-82
2023/05/21 09:09:25;;;;;;;4.70;2.50;;;;;;;22.13;30.56;101044.19;108211;1253;60099;-83
2023/05/21 09:11:52;;;;;;;4.50;2.70;;;;;;;22.18;29.95;101029.48;108278;1254;77365;-82
2023/05/21 09:14:20;;;;;;;4.20;2.60;;;;;;;22.18;30.61;101037.20;108170;1254;71556;-82
2023/05/21 09:17:06;;;;;;;4.40;2.60;;;;;;;22.13;29.94;101039.64;108301;1254;73407;-81
2023/05/21 09:19:34;;;;;;;5.20;2.60;;;;;;;22.03;30.39;101029.25;108321;1254;61289;-82
2023/05/21 09:22:02;;;;;;;6.10;2.70;;;;;;;22.06;30.50;101025.21;108238;1253;61748;-81
2023/05/21 09:24:30;;;;;;;4.00;2.70;;;;;;;22.13;30.69;101025.69;108153;1254;76578;-82
2023/05/21 09:27:02;;;;;;;5.30;2.60;;;;;;;22.19;30.54;101020.23;108176;1252;72680;-83
2023/05/21 09:29:30;;;;;;;3.60;2.30;;;;;;;22.25;30.51;101021.23;108293;1253;73322;-81
2023/05/21 09:31:57;;;;;;;5.60;2.70;;;;;;;22.33;30.32;101019.55;108064;1252;60380;-82
2023/05/21 09:34:25;;;;;;;4.20;2.60;;;;;;;22.44;29.84;101011.27;108081;1256;61376;-82
2023/05/21 09:36:55;;;;;;;4.20;2.60;;;;;;;22.47;29.09;101014.52;108045;1254;77326;-81
2023/05/21 09:39:29;;;;;;;4.00;2.60;;;;;;;22.46;29.65;101016.59;107943;1259;72813;-80
2023/05/21 09:41:59;;;;;;;5.00;2.70;;;;;;;22.53;29.51;101014.54;108013;1254;73488;-81
2023/05/21 09:44:26;;;;;;;3.70;2.30;;;;;;;22.56;29.27;101016.06;107899;1252;61277;-82
2023/05/21 09:46:58;;;;;;;4.40;2.40;;;;;;;22.57;29.17;101013.08;108327;1253;60447;-84
2023/05/21 09:49:26;;;;;;;4.80;2.30;;;;;;;22.57;29.69;101010.56;108159;1253;75172;-81
2023/05/21 09:51:55;;;;;;;4.50;2.80;;;;;;;22.65;30.02;101002.52;108116;1258;73574;-82
2023/05/21 09:54:24;;;;;;;5.30;2.40;;;;;;;22.82;29.46;101005.56;108141;1254;71638;-80
2023/05/21 09:56:54;;;;;;;5.30;2.40;;;;;;;22.87;29.07;100997.46;108193;1254;61148;-81
2023/05/21 09:59:29;;;;;;;5.30;2.40;;;;;;;22.85;29.38;101000.95;103234;1252;10002355;-83
2023/05/21 10:01:56;;;;;;;6.00;2.30;;;;;;;22.86;29.02;101001.13;85578;1253;10003215;-82
2023/05/21 10:04:23;;;;;;;6.00;2.60;;;;;;;22.90;28.81;100992.35;108011;1254;61106;-82
2023/05/21 10:06:51;;;;;;;5.30;2.50;;;;;;;22.99;29.13;100995.28;107965;1254;61157;-80
2023/05/21 10:09:18;;;;;;;5.70;2.70;;;;;;;23.04;28.47;100993.64;108255;1253;61140;-82
2023/05/21 10:11:45;;;;;;;6.70;2.30;;;;;;;23.03;28.39;100993.52;108143;1253;61241;-82
2023/05/21 10:14:18;;;;;;;3.80;2.70;;;;;;;23.02;28.41;100991.85;108126;1254;59490;-81
2023/05/21 10:16:46;;;;;;;4.20;2.20;;;;;;;23.01;28.51;100993.20;108220;1253;75265;-82
2023/05/21 10:19:14;;;;;;;4.40;2.30;;;;;;;23.02;28.48;100989.89;108164;1254;74283;-81
2023/05/21 10:21:41;;;;;;;5.60;2.40;;;;;;;23.07;28.26;100984.78;108129;1254;72753;-82
2023/05/21 10:24:09;;;;;;;6.20;2.70;;;;;;;23.13;28.17;100979.10;107997;1254;61357;-81
2023/05/21 10:26:37;;;;;;;6.30;2.50;;;;;;;23.14;28.10;100982.34;108144;1254;61856;-81
2023/05/21 10:29:04;;;;;;;6.70;2.60;;;;;;;23.12;28.10;100986.24;108185;1252;75302;-83
2023/05/21 10:31:31;;;;;;;4.40;2.80;;;;;;;23.15;28.59;100985.27;108098;1254;74143;-82
2023/05/21 10:34:00;;;;;;;6.10;2.80;;;;;;;23.22;28.43;100985.59;107981;1254;70953;-80
2023/05/21 10:36:29;;;;;;;4.90;2.80;;;;;;;23.25;28.76;100986.39;108050;1254;61340;-81
2023/05/21 10:38:56;;;;;;;7.60;2.90;;;;;;;23.27;28.27;100985.25;108023;1254;61241;-80
2023/05/21 10:41:24;;;;;;;5.50;2.40;;;;;;;23.29;28.54;100982.66;108057;1256;75720;-81
2023/05/21 10:44:04;;;;;;;4.90;2.90;;;;;;;23.43;28.87;100985.37;108022;1254;74568;-81
2023/05/21 10:46:54;;;;;;;6.80;2.70;;;;;;;23.65;28.74;100984.20;108081;1253;74038;-82
2023/05/21 10:49:43;;;;;;;4.70;2.50;;;;;;;23.86;28.13;100980.23;108068;1254;61054;-81
2023/05/21 10:52:17;;;;;;;6.10;2.60;;;;;;;24.02;27.53;100976.89;108152;1254;61393;-81
2023/05/21 10:54:58;;;;;;;3.70;2.50;;;;;;;24.07;27.04;100979.70;108184;1254;76292;-82
2023/05/21 10:57:59;;;;;;;6.00;2.80;;;;;;;24.01;27.28;100983.41;108208;1253;73117;-82
2023/05/21 11:00:26;;;;;;;4.30;2.30;;;;;;;24.07;27.37;100974.02;108214;1254;72058;-84
2023/05/21 11:02:53;;;;;;;5.50;2.40;;;;;;;24.27;27.13;100974.67;108179;1254;61127;-81
2023/05/21 11:05:51;;;;;;;4.40;2.20;;;;;;;24.35;26.56;100977.98;108051;1253;61650;-83
2023/05/21 11:08:25;;;;;;;6.50;2.90;;;;;;;24.33;26.55;100980.51;108006;1254;73521;-81
2023/05/21 11:10:53;;;;;;;4.70;2.20;;;;;;;24.30;27.05;100976.48;108167;1254;74910;-83
2023/05/21 11:13:21;;;;;;;3.90;2.10;;;;;;;24.38;26.80;100982.45;108192;1253;72080;-82
2023/05/21 11:15:57;;;;;;;6.20;2.60;;;;;;;24.41;26.36;100982.48;108128;1254;62647;-82
2023/05/21 11:18:36;;;;;;;5.10;2.50;;;;;;;24.42;26.39;100988.79;108153;1254;61102;-80
2023/05/21 11:21:11;;;;;;;5.40;2.70;;;;;;;24.45;26.46;100987.52;108212;1253;76613;-82
2023/05/21 11:23:54;;;;;;;5.60;2.50;;;;;;;24.51;26.54;100978.62;108091;1254;75053;-82
2023/05/21 11:26:27;;;;;;;5.00;2.30;;;;;;;24.65;26.78;100980.39;108265;1254;71773;-82